Portada
METAR-TAF:

METAR-TAF

Aeroports :

Fort Myers, Florida, Estats Units d'Amèrica

latitud: 26-35-03N, longitud: 081-51-45W, altitud: 5 m

Observació

L'informe es va fer fa 47 minuts, a les 21:53 UTC
Vent 12 kt del Oest/Nord-Oest amb ràfegues de 21 kt
Temperatura 18°C
Humitat 45%
Pressió 1023 hPa
Visibilitat: 16.1 km
Cel clar

METAR: KFMY 282153Z 29012G21KT 10SM CLR 18/06 A3020 RMK AO2 SLP229 T01830061

Hora: 17:40 (22:40 UTC)

Pronòstic

L'informe es va fer fa 5 hores i 20 minuts, a les 17:20 UTC
Pronòstic vàlid del 28 a les 18 UTC al 29 a les 18 UTC
Vent 10 kt del Nord/Nord-Oest
Visibilitat: 10 km
Escasses núvols a una alçada de 4500 ft
A partir de les 29 a les 0100 UTC
Vent 5 kt del Nord-Oest
Visibilitat: 10 km
Núvols disperses a una alçada de 5000 ft
A partir de les 29 a les 1400 UTC
Vent 12 kt del Nord amb ràfegues de 20 kt
Visibilitat: 10 km
Cel clar

TAF: KFMY 281720Z 2818/2918 33010KT P6SM FEW045 FM290100 32005KT P6SM SCT050 FM291400 35012G20KT P6SM SKC

Observacions i pronòstics meteorològics de més de 4000 aeroports (METAR i TAF).

Les estacions disponibles són els punts grocs i vermells al mapa.

Posi el ratolí al punt desitjat per veure el nom de l'estació.

Feu clic per veure les observacions i els pronòstics meteorològics.

Per canviar el mapa: feu clic els botons verds amb una creu de color negre per apropar; al botó verd amb un guió per allunyar la imatge; o en les fletxes verdes per a mapes adjacents.


METAR-TAF: